createdAt,value
2022-08-24T00:01:03.614Z,2.00
2022-08-24T00:04:05.509Z,1.90
2022-08-24T00:07:19.141Z,1.77
2022-08-24T00:10:29.818Z,2.17
2022-08-24T00:13:36.640Z,1.97
2022-08-24T00:16:41.485Z,1.60
2022-08-24T00:19:44.008Z,1.70
2022-08-24T00:22:46.266Z,1.90
2022-08-24T00:25:48.585Z,2.00
2022-08-24T00:28:50.558Z,1.70
2022-08-24T00:31:54.031Z,2.00
2022-08-24T00:34:58.798Z,2.00
2022-08-24T00:38:02.598Z,1.90
2022-08-24T00:41:05.548Z,2.33
2022-08-24T00:44:07.750Z,2.27
2022-08-24T00:47:18.943Z,2.10
2022-08-24T00:50:28.089Z,1.93
2022-08-24T00:53:38.538Z,1.67
2022-08-24T00:56:52.917Z,2.20
2022-08-24T00:59:59.564Z,1.83
2022-08-24T01:03:05.478Z,1.80
2022-08-24T01:06:07.852Z,1.77
2022-08-24T01:09:09.708Z,1.90
2022-08-24T01:12:12.483Z,2.00
2022-08-24T01:15:16.051Z,2.00
2022-08-24T01:18:40.463Z,2.40
2022-08-24T01:21:50.839Z,2.30
2022-08-24T01:24:52.943Z,2.00
2022-08-24T01:27:58.334Z,2.50
2022-08-24T01:31:00.682Z,2.20
2022-08-24T01:34:02.748Z,2.00
2022-08-24T01:37:11.112Z,2.60
2022-08-24T01:40:15.105Z,2.07
2022-08-24T01:43:17.825Z,2.90
2022-08-24T01:46:19.985Z,2.27
2022-08-24T01:49:33.387Z,2.20
2022-08-24T01:53:03.522Z,2.60
2022-08-24T01:55:59.037Z,1.80
2022-08-24T01:59:01.912Z,2.30
2022-08-24T02:02:27.383Z,2.37
2022-08-24T02:05:29.997Z,2.77
2022-08-24T02:08:36.800Z,2.37
2022-08-24T02:11:40.004Z,2.23
2022-08-24T02:14:42.236Z,2.10
2022-08-24T02:17:44.302Z,2.60
2022-08-24T02:20:46.407Z,2.40
2022-08-24T02:23:49.030Z,2.40
2022-08-24T02:26:51.852Z,2.33
2022-08-24T02:29:53.792Z,2.27
2022-08-24T02:32:55.952Z,2.47
2022-08-24T02:35:58.294Z,2.30
2022-08-24T02:39:00.944Z,2.27
2022-08-24T02:42:02.883Z,2.20
2022-08-24T02:45:06.869Z,2.40
2022-08-24T02:48:08.991Z,2.30
2022-08-24T02:51:22.473Z,2.53
2022-08-24T02:54:26.857Z,2.00
2022-08-24T02:57:28.774Z,2.17
2022-08-24T03:00:30.807Z,2.20
2022-08-24T03:03:33.189Z,2.30
2022-08-24T03:06:35.220Z,2.00
2022-08-24T03:09:37.739Z,2.47
2022-08-24T03:12:40.350Z,2.30
2022-08-24T03:15:42.883Z,2.00
2022-08-24T03:18:45.169Z,2.30
2022-08-24T03:21:47.574Z,2.67
2022-08-24T03:24:49.662Z,2.07
2022-08-24T03:27:52.762Z,2.20
2022-08-24T03:30:54.804Z,2.20
2022-08-24T03:33:58.912Z,2.40
2022-08-24T03:37:00.832Z,2.40
2022-08-24T03:40:03.047Z,2.03
2022-08-24T03:43:06.839Z,2.20
2022-08-24T03:46:09.647Z,2.00
2022-08-24T03:49:12.020Z,2.27
2022-08-24T03:52:14.838Z,2.17
2022-08-24T03:55:16.861Z,2.63
2022-08-24T03:58:18.868Z,2.50
2022-08-24T04:01:21.798Z,2.20
2022-08-24T04:04:23.983Z,2.20
2022-08-24T04:07:28.107Z,2.00
2022-08-24T04:10:32.649Z,2.03
2022-08-24T04:13:35.158Z,2.10
2022-08-24T04:16:37.395Z,2.60
2022-08-24T04:19:57.975Z,2.10
2022-08-24T04:23:00.360Z,2.40
2022-08-24T04:26:05.842Z,2.47
2022-08-24T04:29:10.503Z,2.83
2022-08-24T04:32:15.018Z,2.20
2022-08-24T04:35:18.213Z,2.30
2022-08-24T04:38:20.852Z,2.30
2022-08-24T04:41:27.457Z,2.47
2022-08-24T04:44:33.979Z,2.53
2022-08-24T04:47:35.887Z,2.70
2022-08-24T04:50:40.958Z,2.83
2022-08-24T04:53:43.822Z,2.70
2022-08-24T04:56:45.822Z,2.20
2022-08-24T04:59:47.955Z,2.60
2022-08-24T05:02:49.857Z,2.27
2022-08-24T05:05:52.104Z,2.50
2022-08-24T05:08:55.752Z,2.50
2022-08-24T05:12:00.512Z,2.30
2022-08-24T05:15:03.807Z,2.60
2022-08-24T05:18:05.767Z,2.50
2022-08-24T05:21:11.946Z,2.40
2022-08-24T05:24:13.905Z,2.67
2022-08-24T05:27:16.223Z,2.77
2022-08-24T05:30:23.108Z,2.37
2022-08-24T05:33:26.037Z,3.00
2022-08-24T05:36:30.660Z,2.10
2022-08-24T05:39:33.222Z,2.43
2022-08-24T05:42:36.833Z,3.03
2022-08-24T05:45:44.589Z,2.40
2022-08-24T05:48:52.611Z,2.70
2022-08-24T05:51:56.368Z,2.60
2022-08-24T05:55:02.390Z,2.67
2022-08-24T05:58:04.624Z,2.37
2022-08-24T06:01:14.907Z,2.40
2022-08-24T06:04:17.788Z,2.43
2022-08-24T06:07:19.816Z,2.37
2022-08-24T06:10:36.470Z,2.40
2022-08-24T06:13:39.409Z,2.37
2022-08-24T06:16:45.075Z,2.20
2022-08-24T06:19:47.152Z,2.43
2022-08-24T06:22:49.008Z,2.47
2022-08-24T06:26:14.697Z,2.10
2022-08-24T06:29:19.119Z,2.47
2022-08-24T06:32:24.052Z,2.33
2022-08-24T06:35:27.186Z,2.30
2022-08-24T06:38:31.337Z,2.30
2022-08-24T06:41:35.004Z,2.87
2022-08-24T06:44:36.958Z,2.60
2022-08-24T06:47:39.323Z,2.50
2022-08-24T06:50:45.445Z,2.43
2022-08-24T06:53:51.210Z,2.30
2022-08-24T06:56:53.205Z,2.77
2022-08-24T06:59:59.193Z,2.60
2022-08-24T07:03:03.847Z,2.53
2022-08-24T07:06:08.698Z,2.63
2022-08-24T07:09:11.228Z,2.30
2022-08-24T07:12:13.107Z,2.23
2022-08-24T07:15:16.422Z,2.60
2022-08-24T07:18:25.588Z,2.30
2022-08-24T07:21:32.008Z,2.70
2022-08-24T07:24:34.130Z,2.03
2022-08-24T07:27:36.082Z,2.20
2022-08-24T07:30:39.963Z,2.50
2022-08-24T07:33:42.833Z,2.20
2022-08-24T07:36:45.488Z,2.40
2022-08-24T07:39:47.472Z,2.25
2022-08-24T07:42:53.310Z,2.20
2022-08-24T07:45:57.738Z,2.20
2022-08-24T07:49:11.334Z,1.88
2022-08-24T07:52:22.184Z,2.10
2022-08-24T07:55:27.240Z,1.95
2022-08-24T07:58:30.633Z,2.28
2022-08-24T08:01:33.991Z,2.10
2022-08-24T08:04:36.166Z,2.00
2022-08-24T08:07:41.922Z,2.22
2022-08-24T08:10:45.618Z,1.88
2022-08-24T08:13:47.515Z,2.30
2022-08-24T08:16:50.092Z,2.08
2022-08-24T08:19:57.058Z,2.10
2022-08-24T08:23:18.261Z,1.90
2022-08-24T08:26:23.018Z,2.03
2022-08-24T08:29:26.669Z,1.70
2022-08-24T08:32:28.673Z,2.05
2022-08-24T08:35:39.302Z,2.05
2022-08-24T08:38:43.780Z,2.47
2022-08-24T08:41:51.589Z,2.15
2022-08-24T08:45:12.560Z,2.00
2022-08-24T08:48:29.368Z,2.30
2022-08-24T08:52:02.251Z,2.15
2022-08-24T08:55:29.582Z,1.95
2022-08-24T08:58:57.473Z,2.15
2022-08-24T09:02:38.272Z,2.15
2022-08-24T09:05:49.017Z,2.15
2022-08-24T09:09:19.339Z,1.80
2022-08-24T09:12:52.354Z,2.90
2022-08-24T09:16:46.647Z,2.17
2022-08-24T09:20:17.303Z,1.90
2022-08-24T09:23:46.225Z,2.08
2022-08-24T09:26:54.213Z,2.42
2022-08-24T09:30:19.279Z,2.40
2022-08-24T09:33:24.327Z,2.15
2022-08-24T09:36:45.348Z,2.38
2022-08-24T09:40:16.628Z,2.15
2022-08-24T09:43:54.848Z,1.80
2022-08-24T09:47:38.364Z,1.92
2022-08-24T09:51:24.858Z,2.03
2022-08-24T09:55:05.171Z,1.75
2022-08-24T09:58:25.632Z,1.75
2022-08-24T10:02:09.089Z,1.92
2022-08-24T10:05:36.660Z,1.75
2022-08-24T10:09:20.650Z,1.80
2022-08-24T10:12:47.351Z,2.08
2022-08-24T10:16:03.623Z,1.83
2022-08-24T10:19:22.057Z,2.10
2022-08-24T10:23:13.469Z,1.75
2022-08-24T10:27:16.332Z,1.77
2022-08-24T10:30:54.291Z,1.95
2022-08-24T10:34:21.524Z,1.98
2022-08-24T10:37:52.818Z,1.60
2022-08-24T10:41:15.551Z,1.40
2022-08-24T10:45:01.790Z,1.65
2022-08-24T10:48:26.012Z,2.05
2022-08-24T10:52:05.702Z,1.80
2022-08-24T10:55:21.192Z,1.60
2022-08-24T10:58:38.681Z,1.83
2022-08-24T11:01:42.407Z,1.73
2022-08-24T11:05:08.428Z,1.70
2022-08-24T11:08:20.467Z,1.60
2022-08-24T11:11:30.814Z,1.70
2022-08-24T11:18:03.786Z,2.00
2022-08-24T11:21:07.677Z,1.70
2022-08-24T11:24:15.864Z,1.77
2022-08-24T11:27:39.119Z,1.80
2022-08-24T11:30:45.344Z,2.08
2022-08-24T11:33:53.453Z,1.85
2022-08-24T11:37:00.338Z,1.80
2022-08-24T11:40:03.233Z,2.22
2022-08-24T11:43:51.917Z,2.22
2022-08-24T11:47:28.168Z,1.92
2022-08-24T11:50:48.937Z,2.92
2022-08-24T11:54:25.465Z,2.22
2022-08-24T11:57:32.422Z,2.20
2022-08-24T12:00:46.632Z,1.98
2022-08-24T12:04:26.715Z,1.65
2022-08-24T12:07:43.868Z,1.95
2022-08-24T12:11:05.527Z,1.77
2022-08-24T12:14:16.722Z,2.15
2022-08-24T12:18:04.022Z,2.25
2022-08-24T12:21:12.717Z,2.58
2022-08-24T12:24:33.367Z,1.73
2022-08-24T12:27:38.986Z,2.00
2022-08-24T12:30:41.301Z,2.10
2022-08-24T12:33:51.742Z,1.80
2022-08-24T12:37:16.528Z,1.88
2022-08-24T12:40:37.116Z,1.73
2022-08-24T12:43:47.617Z,1.70
2022-08-24T12:46:54.562Z,1.90
2022-08-24T12:50:10.221Z,1.70
2022-08-24T12:53:42.643Z,2.13
2022-08-24T12:57:13.332Z,1.50
2022-08-24T13:00:37.188Z,1.90
2022-08-24T13:03:43.427Z,1.73
2022-08-24T13:07:00.350Z,1.60
2022-08-24T13:10:38.762Z,1.77
2022-08-24T13:13:49.401Z,1.95
2022-08-24T13:16:58.069Z,2.00
2022-08-24T13:20:38.668Z,2.03
2022-08-24T13:23:41.877Z,1.95
2022-08-24T13:26:46.082Z,1.83
2022-08-24T13:30:19.369Z,1.80
2022-08-24T13:33:33.193Z,1.75
2022-08-24T13:36:48.699Z,1.60
2022-08-24T13:40:09.717Z,1.75
2022-08-24T13:43:20.409Z,1.58
2022-08-24T13:47:00.133Z,1.30
2022-08-24T13:50:13.361Z,1.92
2022-08-24T13:53:58.491Z,1.80
2022-08-24T13:57:28.508Z,2.15
2022-08-24T14:00:41.882Z,1.85
2022-08-24T14:04:11.697Z,1.50
2022-08-24T14:07:45.632Z,1.77
2022-08-24T14:11:25.889Z,1.48
2022-08-24T14:14:55.843Z,1.67
2022-08-24T14:18:11.632Z,1.55
2022-08-24T14:21:18.234Z,1.70
2022-08-24T14:25:08.506Z,1.52
2022-08-24T14:28:41.189Z,1.88
2022-08-24T14:32:08.637Z,1.88
2022-08-24T14:35:20.358Z,1.65
2022-08-24T14:38:41.697Z,1.88
2022-08-24T14:41:47.442Z,1.67
2022-08-24T14:45:14.402Z,1.70
2022-08-24T14:48:28.467Z,1.60
2022-08-24T14:52:01.659Z,1.80
2022-08-24T14:55:24.327Z,1.17
2022-08-24T14:58:58.662Z,1.60
2022-08-24T15:02:34.486Z,1.40
2022-08-24T15:06:09.651Z,1.83
2022-08-24T15:09:14.635Z,1.35
2022-08-24T15:12:42.755Z,1.50
2022-08-24T15:15:59.291Z,1.50
2022-08-24T15:19:37.728Z,1.42
2022-08-24T15:23:15.009Z,1.40
2022-08-24T15:26:42.148Z,1.35
2022-08-24T15:29:52.927Z,1.40
2022-08-24T15:33:04.408Z,1.40
2022-08-24T15:36:16.798Z,1.70
2022-08-24T15:39:28.179Z,1.60
2022-08-24T15:42:35.066Z,1.50
2022-08-24T15:45:52.947Z,1.50
2022-08-24T15:49:29.564Z,1.50
2022-08-24T15:52:52.829Z,1.52
2022-08-24T15:55:57.081Z,1.30
2022-08-24T15:59:10.772Z,1.92
2022-08-24T16:02:32.042Z,1.60
2022-08-24T16:05:38.905Z,1.60
2022-08-24T16:09:14.957Z,1.77
2022-08-24T16:12:23.465Z,1.70
2022-08-24T16:15:25.568Z,1.67
2022-08-24T16:18:55.608Z,1.60
2022-08-24T16:22:09.682Z,1.67
2022-08-24T16:25:23.785Z,1.48
2022-08-24T16:28:29.893Z,1.52
2022-08-24T16:31:55.343Z,1.75
2022-08-24T16:35:12.698Z,1.40
2022-08-24T16:38:14.591Z,1.45
2022-08-24T16:41:20.893Z,1.55
2022-08-24T16:44:26.229Z,1.52
2022-08-24T16:47:29.005Z,1.55
2022-08-24T16:50:32.546Z,1.73
2022-08-24T16:53:36.768Z,1.73
2022-08-24T16:56:39.990Z,1.60
2022-08-24T16:59:46.350Z,1.55
2022-08-24T17:02:51.437Z,1.83
2022-08-24T17:05:53.788Z,1.73
2022-08-24T17:08:56.812Z,1.70
2022-08-24T17:12:01.970Z,1.88
2022-08-24T17:15:06.982Z,1.75
2022-08-24T17:18:14.597Z,1.70
2022-08-24T17:21:22.058Z,1.80
2022-08-24T17:24:26.604Z,2.17
2022-08-24T17:27:32.733Z,2.20
2022-08-24T17:30:37.408Z,2.00
2022-08-24T17:33:40.746Z,1.98
2022-08-24T17:36:45.937Z,2.05
2022-08-24T17:39:56.859Z,2.20
2022-08-24T17:42:59.889Z,1.90
2022-08-24T17:46:03.752Z,1.80
2022-08-24T17:49:11.531Z,1.73
2022-08-24T17:52:17.327Z,1.80
2022-08-24T17:55:25.102Z,2.08
2022-08-24T17:58:29.204Z,2.28
2022-08-24T18:01:35.068Z,2.00
2022-08-24T18:04:37.665Z,2.60
2022-08-24T18:07:54.196Z,2.20
2022-08-24T18:11:02.932Z,2.30
2022-08-24T18:14:05.187Z,2.55
2022-08-24T18:17:20.081Z,2.13
2022-08-24T18:20:31.494Z,2.50
2022-08-24T18:23:34.352Z,2.13
2022-08-24T18:26:48.077Z,2.13
2022-08-24T18:29:53.198Z,2.35
2022-08-24T18:32:57.974Z,2.40
2022-08-24T18:36:03.383Z,2.00
2022-08-24T18:39:07.269Z,2.22
2022-08-24T18:42:13.089Z,2.22
2022-08-24T18:45:19.081Z,2.63
2022-08-24T18:48:24.507Z,2.28
2022-08-24T18:51:34.918Z,2.42
2022-08-24T18:54:42.412Z,2.40
2022-08-24T18:57:45.510Z,2.50
2022-08-24T19:00:53.212Z,2.55
2022-08-24T19:03:55.893Z,2.67
2022-08-24T19:06:59.960Z,2.35
2022-08-24T19:10:04.527Z,2.22
2022-08-24T19:13:19.233Z,2.80
2022-08-24T19:16:29.145Z,2.72
2022-08-24T19:19:35.244Z,2.50
2022-08-24T19:22:39.782Z,2.35
2022-08-24T19:25:49.120Z,2.60
2022-08-24T19:28:54.390Z,2.60
2022-08-24T19:32:01.601Z,2.80
2022-08-24T19:35:06.664Z,2.33
2022-08-24T19:38:09.507Z,2.60
2022-08-24T19:41:14.317Z,2.43
2022-08-24T19:44:36.772Z,2.93
2022-08-24T19:47:48.788Z,2.50
2022-08-24T19:50:55.374Z,2.80
2022-08-24T19:54:01.993Z,2.67
2022-08-24T19:57:22.883Z,2.50
2022-08-24T20:00:29.568Z,2.40
2022-08-24T20:03:40.623Z,2.90
2022-08-24T20:06:45.865Z,2.90
2022-08-24T20:09:54.798Z,2.63
2022-08-24T20:12:56.903Z,2.63
2022-08-24T20:15:59.316Z,2.67
2022-08-24T20:19:03.054Z,2.90
2022-08-24T20:22:13.049Z,3.03
2022-08-24T20:25:23.273Z,2.77
2022-08-24T20:28:37.787Z,2.90
2022-08-24T20:31:41.325Z,2.57
2022-08-24T20:34:46.488Z,3.27
2022-08-24T20:37:50.768Z,3.13
2022-08-24T20:40:53.174Z,3.00
2022-08-24T20:43:57.871Z,2.73
2022-08-24T20:47:02.121Z,2.87
2022-08-24T20:50:05.225Z,2.90
2022-08-24T20:53:12.694Z,3.10
2022-08-24T20:56:19.673Z,3.23
2022-08-24T20:59:22.027Z,3.07
2022-08-24T21:02:25.028Z,2.73
2022-08-24T21:05:28.357Z,2.97
2022-08-24T21:08:30.834Z,2.63
2022-08-24T21:11:34.198Z,2.87
2022-08-24T21:14:40.705Z,2.57
2022-08-24T21:17:44.038Z,2.83
2022-08-24T21:21:03.250Z,3.20
2022-08-24T21:24:08.176Z,2.77
2022-08-24T21:27:10.612Z,3.13
2022-08-24T21:30:18.953Z,3.20
2022-08-24T21:33:39.399Z,2.87
2022-08-24T21:36:42.180Z,2.80
2022-08-24T21:39:48.666Z,3.10
2022-08-24T21:42:51.547Z,2.97
2022-08-24T21:45:56.814Z,3.47
2022-08-24T21:48:59.532Z,2.90
2022-08-24T21:52:02.030Z,3.00
2022-08-24T21:55:10.599Z,3.37
2022-08-24T21:58:19.538Z,3.27
2022-08-24T22:01:21.541Z,3.27
2022-08-24T22:04:26.049Z,2.83
2022-08-24T22:07:27.914Z,3.17
2022-08-24T22:10:31.878Z,2.80
2022-08-24T22:13:34.927Z,3.07
2022-08-24T22:16:37.420Z,3.50
2022-08-24T22:19:40.059Z,2.97
2022-08-24T22:22:46.002Z,3.70
2022-08-24T22:25:53.062Z,3.10
2022-08-24T22:28:57.109Z,3.07
2022-08-24T22:32:00.381Z,3.00
2022-08-24T22:35:06.974Z,3.03
2022-08-24T22:38:09.587Z,3.03
2022-08-24T22:41:11.971Z,3.23
2022-08-24T22:44:19.785Z,3.40
2022-08-24T22:47:21.629Z,3.17
2022-08-24T22:50:23.580Z,3.53
2022-08-24T22:53:25.632Z,3.97
2022-08-24T22:56:32.835Z,3.10
2022-08-24T22:59:39.427Z,3.20
2022-08-24T23:02:48.585Z,3.40
2022-08-24T23:05:50.543Z,3.40
2022-08-24T23:08:53.168Z,3.07
2022-08-24T23:11:55.194Z,3.30
2022-08-24T23:14:57.218Z,3.73
2022-08-24T23:18:19.008Z,3.47
2022-08-24T23:21:21.579Z,3.30
2022-08-24T23:24:24.148Z,3.37
2022-08-24T23:27:31.834Z,2.97
2022-08-24T23:30:39.685Z,3.07
2022-08-24T23:33:41.861Z,3.27
2022-08-24T23:36:44.553Z,3.20
2022-08-24T23:39:46.566Z,3.60
2022-08-24T23:42:48.479Z,3.23
2022-08-24T23:45:54.690Z,3.20
2022-08-24T23:48:58.762Z,3.70
2022-08-24T23:52:04.008Z,3.83
2022-08-24T23:55:20.910Z,3.53
2022-08-24T23:58:24.281Z,4.10
